createdAt,value
2018-06-02T00:01:50.564Z,20.66
2018-06-02T00:04:18.043Z,20.61
2018-06-02T00:06:45.517Z,20.67
2018-06-02T00:09:12.977Z,20.56
2018-06-02T00:11:40.461Z,20.63
2018-06-02T00:14:07.925Z,20.55
2018-06-02T00:16:35.418Z,20.55
2018-06-02T00:19:03.222Z,20.56
2018-06-02T00:21:30.688Z,20.51
2018-06-02T00:23:58.180Z,20.51
2018-06-02T00:26:25.647Z,20.58
2018-06-02T00:28:53.131Z,20.60
2018-06-02T00:31:20.593Z,20.60
2018-06-02T00:33:48.052Z,20.66
2018-06-02T00:36:15.538Z,20.69
2018-06-02T00:38:43.008Z,20.71
2018-06-02T00:41:10.487Z,20.75
2018-06-02T00:43:37.952Z,20.81
2018-06-02T00:46:05.445Z,20.91
2018-06-02T00:48:32.908Z,20.91
2018-06-02T00:51:00.376Z,20.99
2018-06-02T00:53:27.860Z,20.94
2018-06-02T00:55:55.330Z,20.90
2018-06-02T00:58:22.828Z,20.90
2018-06-02T01:00:50.291Z,20.90
2018-06-02T01:03:17.923Z,20.86
2018-06-02T01:05:45.385Z,20.85
2018-06-02T01:08:12.841Z,20.88
2018-06-02T01:10:40.324Z,20.86
2018-06-02T01:13:07.788Z,20.77
2018-06-02T01:15:35.446Z,20.60
2018-06-02T01:18:02.908Z,20.73
2018-06-02T01:20:30.390Z,20.82
2018-06-02T01:22:57.862Z,20.68
2018-06-02T01:25:25.328Z,20.62
2018-06-02T01:27:52.819Z,20.59
2018-06-02T01:30:20.284Z,20.52
2018-06-02T01:32:47.773Z,20.46
2018-06-02T01:35:15.228Z,20.36
2018-06-02T01:37:42.708Z,20.41
2018-06-02T01:40:10.180Z,20.30
2018-06-02T01:42:37.643Z,20.40
2018-06-02T01:45:05.292Z,20.33
2018-06-02T01:47:32.752Z,20.24
2018-06-02T01:50:00.237Z,20.18
2018-06-02T01:52:27.712Z,20.24
2018-06-02T01:54:55.188Z,20.27
2018-06-02T01:57:22.642Z,20.15
2018-06-02T01:59:50.105Z,20.14
2018-06-02T02:02:17.586Z,20.18
2018-06-02T02:04:45.041Z,20.23
2018-06-02T02:07:12.525Z,20.27
2018-06-02T02:09:39.984Z,20.21
2018-06-02T02:12:07.463Z,20.16
2018-06-02T02:14:34.915Z,20.07
2018-06-02T02:17:02.380Z,20.05
2018-06-02T02:19:29.852Z,20.16
2018-06-02T02:21:57.307Z,20.01
2018-06-02T02:24:24.799Z,20.07
2018-06-02T02:26:52.256Z,20.04
2018-06-02T02:29:19.722Z,20.01
2018-06-02T02:31:47.205Z,20.04
2018-06-02T02:34:14.670Z,19.96
2018-06-02T02:36:42.156Z,19.88
2018-06-02T02:39:09.623Z,19.87
2018-06-02T02:41:37.103Z,19.81
2018-06-02T02:44:04.582Z,19.81
2018-06-02T02:46:32.040Z,19.83
2018-06-02T02:48:59.520Z,19.71
2018-06-02T02:51:26.983Z,19.62
2018-06-02T02:53:54.625Z,19.59
2018-06-02T02:56:22.093Z,19.59
2018-06-02T02:58:49.553Z,19.56
2018-06-02T03:01:17.023Z,19.59
2018-06-02T03:03:44.480Z,19.49
2018-06-02T03:06:11.962Z,19.50
2018-06-02T03:08:39.419Z,19.46
2018-06-02T03:11:06.875Z,19.46
2018-06-02T03:13:34.358Z,19.42
2018-06-02T03:16:01.823Z,19.38
2018-06-02T03:18:29.295Z,19.47
2018-06-02T03:20:56.748Z,19.46
2018-06-02T03:23:24.209Z,19.51
2018-06-02T03:25:51.691Z,19.50
2018-06-02T03:28:19.149Z,19.47
2018-06-02T03:30:46.629Z,19.52
2018-06-02T03:33:14.085Z,19.52
2018-06-02T03:35:41.565Z,19.68
2018-06-02T03:38:09.024Z,19.66
2018-06-02T03:40:36.840Z,19.77
2018-06-02T03:43:04.301Z,19.86
2018-06-02T03:45:31.757Z,19.88
2018-06-02T03:47:59.232Z,19.76
2018-06-02T03:50:26.683Z,19.85
2018-06-02T03:52:54.160Z,19.83
2018-06-02T03:55:21.616Z,19.97
2018-06-02T04:04:32.189Z,19.98
2018-06-02T04:06:59.646Z,20.06
2018-06-02T04:09:27.113Z,20.14
2018-06-02T04:11:54.592Z,20.19
2018-06-02T04:14:22.064Z,20.25
2018-06-02T04:16:49.553Z,20.25
2018-06-02T04:19:17.029Z,20.40
2018-06-02T04:21:44.487Z,20.58
2018-06-02T04:24:12.107Z,20.34
2018-06-02T04:26:39.571Z,20.30
2018-06-02T04:29:07.053Z,20.15
2018-06-02T04:31:34.522Z,20.34
2018-06-02T04:34:01.993Z,20.31
2018-06-02T04:36:29.472Z,20.27
2018-06-02T04:38:56.945Z,20.37
2018-06-02T04:41:24.432Z,19.77
2018-06-02T04:43:51.896Z,20.21
2018-06-02T04:46:19.366Z,20.28
2018-06-02T04:48:46.851Z,20.14
2018-06-02T04:51:14.329Z,20.16
2018-06-02T04:53:41.813Z,20.06
2018-06-02T04:56:09.284Z,20.20
2018-06-02T04:58:36.779Z,20.21
2018-06-02T05:01:04.351Z,20.26
2018-06-02T05:03:31.825Z,20.24
2018-06-02T05:05:59.305Z,20.18
2018-06-02T05:08:26.773Z,20.17
2018-06-02T05:10:54.232Z,20.16
2018-06-02T05:13:21.729Z,20.16
2018-06-02T05:15:49.419Z,20.05
2018-06-02T05:18:16.912Z,20.14
2018-06-02T05:20:44.388Z,20.31
2018-06-02T05:23:11.868Z,20.32
2018-06-02T05:25:39.331Z,20.39
2018-06-02T05:28:06.799Z,20.51
2018-06-02T05:30:34.291Z,20.46
2018-06-02T05:33:01.762Z,20.39
2018-06-02T05:35:29.253Z,20.50
2018-06-02T05:37:56.728Z,20.57
2018-06-02T05:40:24.225Z,20.56
2018-06-02T05:42:51.696Z,20.93
2018-06-02T05:45:19.164Z,21.04
2018-06-02T05:47:46.647Z,21.04
2018-06-02T05:50:14.104Z,21.33
2018-06-02T05:52:41.608Z,21.70
2018-06-02T05:55:09.076Z,21.58
2018-06-02T05:57:36.556Z,21.17
2018-06-02T06:00:04.037Z,21.61
2018-06-02T06:02:31.589Z,21.62
2018-06-02T06:04:59.093Z,21.42
2018-06-02T06:07:26.553Z,21.39
2018-06-02T06:09:54.015Z,21.46
2018-06-02T06:12:21.496Z,21.57
2018-06-02T06:14:48.952Z,21.60
2018-06-02T06:17:16.417Z,21.76
2018-06-02T06:19:43.877Z,21.81
2018-06-02T06:22:11.324Z,21.89
2018-06-02T06:24:38.815Z,21.90
2018-06-02T06:27:06.366Z,22.06
2018-06-02T06:29:33.848Z,22.14
2018-06-02T06:32:01.300Z,22.31
2018-06-02T06:34:28.763Z,22.11
2018-06-02T06:36:56.275Z,22.06
2018-06-02T06:39:23.700Z,22.04
2018-06-02T06:41:51.179Z,22.10
2018-06-02T06:44:18.640Z,21.69
2018-06-02T06:46:46.097Z,22.33
2018-06-02T06:49:13.573Z,22.43
2018-06-02T06:51:41.045Z,22.43
2018-06-02T06:54:08.525Z,22.44
2018-06-02T06:56:35.973Z,22.60
2018-06-02T06:59:03.467Z,22.19
2018-06-02T07:01:30.930Z,22.25
2018-06-02T07:03:58.392Z,22.31
2018-06-02T07:06:25.865Z,22.57
2018-06-02T07:08:53.385Z,22.66
2018-06-02T07:11:20.818Z,22.69
2018-06-02T07:13:48.282Z,22.37
2018-06-02T07:16:15.743Z,22.49
2018-06-02T07:18:43.229Z,22.77
2018-06-02T07:21:10.687Z,22.31
2018-06-02T07:23:38.171Z,22.46
2018-06-02T07:26:05.627Z,22.28
2018-06-02T07:28:33.082Z,22.66
2018-06-02T07:31:00.560Z,22.46
2018-06-02T07:33:28.012Z,22.33
2018-06-02T07:35:55.479Z,22.07
2018-06-02T07:38:22.927Z,22.45
2018-06-02T07:40:50.381Z,21.97
2018-06-02T07:43:17.893Z,22.20
2018-06-02T07:45:45.340Z,22.41
2018-06-02T07:48:12.815Z,22.38
2018-06-02T07:50:40.284Z,22.42
2018-06-02T07:53:07.744Z,22.44
2018-06-02T07:55:35.588Z,22.70
2018-06-02T07:58:03.039Z,22.79
2018-06-02T08:00:30.506Z,22.88
2018-06-02T08:02:57.971Z,22.60
2018-06-02T08:05:25.432Z,22.72
2018-06-02T08:07:52.908Z,22.60
2018-06-02T08:10:20.375Z,22.34
2018-06-02T08:12:47.849Z,22.69
2018-06-02T08:15:15.328Z,22.27
2018-06-02T08:17:42.782Z,22.45
2018-06-02T08:20:10.256Z,22.57
2018-06-02T08:22:37.716Z,22.44
2018-06-02T08:25:05.189Z,22.63
2018-06-02T08:27:32.648Z,22.61
2018-06-02T08:30:00.105Z,22.84
2018-06-02T08:32:27.588Z,22.69
2018-06-02T08:34:55.040Z,22.76
2018-06-02T08:37:22.517Z,22.28
2018-06-02T08:39:49.972Z,22.49
2018-06-02T08:42:17.447Z,22.83
2018-06-02T08:44:44.915Z,22.71
2018-06-02T08:47:12.392Z,23.16
2018-06-02T08:49:39.886Z,23.13
2018-06-02T08:52:07.341Z,22.56
2018-06-02T08:54:34.800Z,22.38
2018-06-02T08:57:02.271Z,22.84
2018-06-02T08:59:29.746Z,23.19
2018-06-02T09:01:57.236Z,23.50
2018-06-02T09:04:24.699Z,23.41
2018-06-02T09:06:52.152Z,23.74
2018-06-02T09:09:19.624Z,24.03
2018-06-02T09:11:47.075Z,23.91
2018-06-02T09:14:14.544Z,23.43
2018-06-02T09:16:42.011Z,24.03
2018-06-02T09:19:09.500Z,23.92
2018-06-02T09:21:36.957Z,24.30
2018-06-02T09:24:04.415Z,24.66
2018-06-02T09:26:31.889Z,24.49
2018-06-02T09:28:59.349Z,24.15
2018-06-02T09:31:26.840Z,24.21
2018-06-02T09:33:54.316Z,23.70
2018-06-02T09:36:21.769Z,23.92
2018-06-02T09:38:49.241Z,24.17
2018-06-02T09:41:16.693Z,24.03
2018-06-02T09:43:44.175Z,24.18
2018-06-02T09:46:11.627Z,24.70
2018-06-02T09:48:39.081Z,24.97
2018-06-02T09:51:06.554Z,25.99
2018-06-02T09:53:34.037Z,25.84
2018-06-02T09:56:01.964Z,25.07
2018-06-02T09:58:29.441Z,25.57
2018-06-02T10:00:56.907Z,26.00
2018-06-02T10:03:25.436Z,25.39
2018-06-02T10:05:52.957Z,26.05
2018-06-02T10:08:20.439Z,25.87
2018-06-02T10:10:47.906Z,26.33
2018-06-02T10:13:15.365Z,25.21
2018-06-02T10:15:42.843Z,25.57
2018-06-02T10:18:10.292Z,25.48
2018-06-02T10:20:37.762Z,25.75
2018-06-02T10:23:05.219Z,25.95
2018-06-02T10:25:32.673Z,26.38
2018-06-02T10:28:00.140Z,25.43
2018-06-02T10:30:27.589Z,25.67
2018-06-02T10:32:56.524Z,25.50
2018-06-02T10:35:24.016Z,25.96
2018-06-02T10:37:51.472Z,25.78
2018-06-02T10:40:18.924Z,25.99
2018-06-02T10:42:46.396Z,25.86
2018-06-02T10:45:13.863Z,26.19
2018-06-02T10:47:41.315Z,27.22
2018-06-02T10:50:08.800Z,26.00
2018-06-02T10:52:36.260Z,25.86
2018-06-02T10:55:03.748Z,25.97
2018-06-02T10:57:31.200Z,26.20
2018-06-02T10:59:58.651Z,26.38
2018-06-02T11:02:26.128Z,26.31
2018-06-02T11:04:53.580Z,26.84
2018-06-02T11:07:21.069Z,27.21
2018-06-02T11:09:48.528Z,28.32
2018-06-02T11:12:15.985Z,28.15
2018-06-02T11:14:43.459Z,27.52
2018-06-02T11:17:10.908Z,27.10
2018-06-02T11:19:38.466Z,26.76
2018-06-02T11:22:05.875Z,26.87
2018-06-02T11:24:33.327Z,26.51
2018-06-02T11:27:00.804Z,27.03
2018-06-02T11:29:28.259Z,27.00
2018-06-02T11:31:55.736Z,27.34
2018-06-02T11:34:23.195Z,26.60
2018-06-02T11:36:50.660Z,26.74
2018-06-02T11:39:18.134Z,26.57
2018-06-02T11:41:45.589Z,26.62
2018-06-02T11:44:13.140Z,26.75
2018-06-02T11:46:40.541Z,26.89
2018-06-02T11:49:08.001Z,27.53
2018-06-02T11:51:35.468Z,27.09
2018-06-02T11:54:02.924Z,28.41
2018-06-02T11:56:30.390Z,28.13
2018-06-02T11:58:57.854Z,27.87
2018-06-02T12:01:25.302Z,27.55
2018-06-02T12:03:52.803Z,27.53
2018-06-02T12:06:20.262Z,27.69
2018-06-02T12:08:47.993Z,29.01
2018-06-02T12:11:15.455Z,29.77
2018-06-02T12:13:42.908Z,29.49
2018-06-02T12:16:10.372Z,30.39
2018-06-02T12:18:37.827Z,31.13
2018-06-02T12:21:05.299Z,30.70
2018-06-02T12:23:32.756Z,32.24
2018-06-02T12:26:00.225Z,31.10
2018-06-02T12:28:27.723Z,31.28
2018-06-02T12:30:55.139Z,30.66
2018-06-02T12:33:22.617Z,31.91
2018-06-02T12:35:50.066Z,32.05
2018-06-02T12:38:17.541Z,31.48
2018-06-02T12:40:45.000Z,29.34
2018-06-02T12:43:12.443Z,29.89
2018-06-02T12:45:39.912Z,32.45
2018-06-02T12:48:07.365Z,32.88
2018-06-02T12:50:34.849Z,31.99
2018-06-02T12:53:02.313Z,31.83
2018-06-02T12:55:29.776Z,32.53
2018-06-02T12:57:57.236Z,32.72
2018-06-02T13:00:24.692Z,32.67
2018-06-02T13:02:52.157Z,31.69
2018-06-02T13:05:19.610Z,31.88
2018-06-02T13:07:47.087Z,33.22
2018-06-02T13:10:14.543Z,31.34
2018-06-02T13:12:41.995Z,30.41
2018-06-02T13:15:09.469Z,30.75
2018-06-02T13:17:36.925Z,31.98
2018-06-02T13:20:04.396Z,31.67
2018-06-02T13:22:31.855Z,28.83
2018-06-02T13:24:59.337Z,28.98
2018-06-02T13:27:26.787Z,28.15
2018-06-02T13:29:54.249Z,30.59
2018-06-02T13:32:21.719Z,29.86
2018-06-02T13:34:49.180Z,29.60
2018-06-02T13:37:16.664Z,30.16
2018-06-02T13:39:44.119Z,30.02
2018-06-02T13:42:11.573Z,31.75
2018-06-02T13:44:39.041Z,31.81
2018-06-02T13:47:06.503Z,33.24
2018-06-02T13:49:34.008Z,32.08
2018-06-02T13:52:01.459Z,30.80
2018-06-02T13:54:28.924Z,31.05
2018-06-02T13:56:56.527Z,30.68
2018-06-02T13:59:23.984Z,31.84
2018-06-02T14:01:51.686Z,30.81
2018-06-02T14:04:19.139Z,32.14
2018-06-02T14:06:46.584Z,30.09
2018-06-02T14:09:14.052Z,32.08
2018-06-02T14:11:41.500Z,31.01
2018-06-02T14:14:08.981Z,29.82
2018-06-02T14:16:36.440Z,31.24
2018-06-02T14:19:03.900Z,30.74
2018-06-02T14:21:31.386Z,32.27
2018-06-02T14:23:58.845Z,31.88
2018-06-02T14:26:26.313Z,31.57
2018-06-02T14:28:53.764Z,31.43
2018-06-02T14:31:21.228Z,32.90
2018-06-02T14:33:48.703Z,32.74
2018-06-02T14:36:16.152Z,33.09
2018-06-02T14:38:43.618Z,34.06
2018-06-02T14:41:11.093Z,32.97
2018-06-02T14:43:38.623Z,31.79
2018-06-02T14:46:06.043Z,33.63
2018-06-02T14:48:33.505Z,32.41
2018-06-02T14:51:00.995Z,32.30
2018-06-02T14:53:28.460Z,32.90
2018-06-02T14:55:55.936Z,30.80
2018-06-02T14:58:23.401Z,31.51
2018-06-02T15:00:50.860Z,32.09
2018-06-02T15:03:18.335Z,33.13
2018-06-02T15:05:45.784Z,33.85
2018-06-02T15:08:13.275Z,33.71
2018-06-02T15:10:40.731Z,32.92
2018-06-02T15:13:08.199Z,32.98
2018-06-02T15:15:35.667Z,32.93
2018-06-02T15:18:03.120Z,32.52
2018-06-02T15:20:30.588Z,31.98
2018-06-02T15:22:58.042Z,32.93
2018-06-02T15:25:25.516Z,33.85
2018-06-02T15:27:52.987Z,33.05
2018-06-02T15:30:20.442Z,32.42
2018-06-02T15:32:47.904Z,33.08
2018-06-02T15:35:15.353Z,31.91
2018-06-02T15:37:42.822Z,33.44
2018-06-02T15:40:10.275Z,34.25
2018-06-02T15:42:37.727Z,34.33
2018-06-02T15:45:05.208Z,31.46
2018-06-02T15:47:32.655Z,32.88
2018-06-02T15:50:00.186Z,32.96
2018-06-02T15:52:27.640Z,33.88
2018-06-02T15:54:55.109Z,34.86
2018-06-02T15:57:22.579Z,31.88
2018-06-02T15:59:50.029Z,32.85
2018-06-02T16:02:17.488Z,32.74
2018-06-02T16:04:44.941Z,32.50
2018-06-02T16:07:12.404Z,32.08
2018-06-02T16:09:39.859Z,32.70
2018-06-02T16:12:07.376Z,32.68
2018-06-02T16:14:34.908Z,31.64
2018-06-02T16:17:02.366Z,31.01
2018-06-02T16:19:29.836Z,30.02
2018-06-02T16:21:57.336Z,29.90
2018-06-02T16:24:24.781Z,29.15
2018-06-02T16:26:52.261Z,29.59
2018-06-02T16:29:19.724Z,29.34
2018-06-02T16:31:47.204Z,29.36
2018-06-02T16:34:14.659Z,30.67
2018-06-02T16:36:42.113Z,30.82
2018-06-02T16:39:10.100Z,31.12
2018-06-02T16:41:37.551Z,32.44
2018-06-02T16:44:05.020Z,32.64
2018-06-02T16:46:32.468Z,32.33
2018-06-02T16:48:59.920Z,33.06
2018-06-02T16:51:27.397Z,32.97
2018-06-02T16:53:54.858Z,33.50
2018-06-02T16:56:22.329Z,33.94
2018-06-02T16:58:49.784Z,33.24
2018-06-02T17:01:17.248Z,34.16
2018-06-02T17:03:44.712Z,34.33
2018-06-02T17:06:12.199Z,33.61
2018-06-02T17:08:39.699Z,34.53
2018-06-02T17:11:07.156Z,33.83
2018-06-02T17:13:34.645Z,34.48
2018-06-02T17:16:02.116Z,34.83
2018-06-02T17:18:29.572Z,34.56
2018-06-02T17:20:57.791Z,34.79
2018-06-02T17:23:25.248Z,32.93
2018-06-02T17:25:52.713Z,33.04
2018-06-02T17:28:20.177Z,33.48
2018-06-02T17:30:47.632Z,33.49
2018-06-02T17:33:15.099Z,33.67
2018-06-02T17:35:42.565Z,33.65
2018-06-02T17:38:10.022Z,32.43
2018-06-02T17:40:37.492Z,32.61
2018-06-02T17:43:04.950Z,31.11
2018-06-02T17:45:32.421Z,31.51
2018-06-02T17:47:59.879Z,30.56
2018-06-02T17:50:27.331Z,31.92
2018-06-02T17:52:55.466Z,33.29
2018-06-02T17:55:22.932Z,33.27
2018-06-02T17:57:50.411Z,32.27
2018-06-02T18:00:17.856Z,31.76
2018-06-02T18:02:45.335Z,31.45
2018-06-02T18:05:12.826Z,29.84
2018-06-02T18:07:40.293Z,29.00
2018-06-02T18:10:07.782Z,28.14
2018-06-02T18:12:36.010Z,28.05
2018-06-02T18:15:03.486Z,28.17
2018-06-02T18:17:30.955Z,28.61
2018-06-02T18:19:58.416Z,29.06
2018-06-02T18:22:25.887Z,29.45
2018-06-02T18:24:53.357Z,29.49
2018-06-02T18:27:20.814Z,28.45
2018-06-02T18:29:48.288Z,28.69
2018-06-02T18:32:15.748Z,28.18
2018-06-02T18:34:43.227Z,28.46
2018-06-02T18:37:10.700Z,27.29
2018-06-02T18:39:38.160Z,26.75
2018-06-02T18:42:05.667Z,26.17
2018-06-02T18:44:33.157Z,26.11
2018-06-02T18:47:00.670Z,25.59
2018-06-02T18:49:28.138Z,25.58
2018-06-02T18:51:55.593Z,25.07
2018-06-02T18:54:23.061Z,25.03
2018-06-02T18:56:50.538Z,24.96
2018-06-02T18:59:18.091Z,24.84
2018-06-02T19:01:45.540Z,24.70
2018-06-02T19:04:13.008Z,24.58
2018-06-02T19:06:40.485Z,24.51
2018-06-02T19:09:07.939Z,24.34
2018-06-02T19:11:35.424Z,24.31
2018-06-02T19:14:02.902Z,24.30
2018-06-02T19:16:30.383Z,24.22
2018-06-02T19:18:57.845Z,24.08
2018-06-02T19:21:25.304Z,23.95
2018-06-02T19:23:52.775Z,23.91
2018-06-02T19:26:20.228Z,23.85
2018-06-02T19:28:47.722Z,23.81
2018-06-02T19:31:15.183Z,23.73
2018-06-02T19:33:42.636Z,23.65
2018-06-02T19:36:10.125Z,23.70
2018-06-02T19:38:37.587Z,23.56
2018-06-02T19:41:05.060Z,23.60
2018-06-02T19:43:32.511Z,23.46
2018-06-02T19:45:59.986Z,23.38
2018-06-02T19:48:27.448Z,23.42
2018-06-02T19:50:54.896Z,23.34
2018-06-02T19:53:22.367Z,23.32
2018-06-02T19:55:49.814Z,23.25
2018-06-02T19:58:17.304Z,23.20
2018-06-02T20:00:44.759Z,23.22
2018-06-02T20:03:12.231Z,23.15
2018-06-02T20:05:39.689Z,23.06
2018-06-02T20:08:07.144Z,23.06
2018-06-02T20:10:34.625Z,23.03
2018-06-02T20:13:02.083Z,22.91
2018-06-02T20:15:29.555Z,22.90
2018-06-02T20:17:57.016Z,22.77
2018-06-02T20:20:24.491Z,22.70
2018-06-02T20:22:51.959Z,22.69
2018-06-02T20:25:19.407Z,22.78
2018-06-02T20:27:46.903Z,22.74
2018-06-02T20:30:14.360Z,22.85
2018-06-02T20:32:41.812Z,22.82
2018-06-02T20:35:09.283Z,22.87
2018-06-02T20:37:36.744Z,22.68
2018-06-02T20:40:04.251Z,22.62
2018-06-02T20:42:31.717Z,22.74
2018-06-02T20:44:59.172Z,22.49
2018-06-02T20:47:26.631Z,22.31
2018-06-02T20:49:54.084Z,22.28
2018-06-02T20:52:21.586Z,22.30
2018-06-02T20:54:49.048Z,22.32
2018-06-02T20:57:16.529Z,22.04
2018-06-02T20:59:44.016Z,22.16
2018-06-02T21:02:11.477Z,22.11
2018-06-02T21:04:38.969Z,22.10
2018-06-02T21:07:07.516Z,22.13
2018-06-02T21:09:35.231Z,22.22
2018-06-02T21:12:02.712Z,22.13
2018-06-02T21:14:30.165Z,22.23
2018-06-02T21:16:57.669Z,22.21
2018-06-02T21:19:25.126Z,22.18
2018-06-02T21:21:52.585Z,22.15
2018-06-02T21:24:20.052Z,22.12
2018-06-02T21:26:47.511Z,22.20
2018-06-02T21:29:14.984Z,22.24
2018-06-02T21:31:42.441Z,22.08
2018-06-02T21:34:09.905Z,22.15
2018-06-02T21:36:37.413Z,22.09
2018-06-02T21:39:05.792Z,21.94
2018-06-02T21:41:33.299Z,21.84
2018-06-02T21:44:00.752Z,21.78
2018-06-02T21:46:28.207Z,21.62
2018-06-02T21:48:55.680Z,21.74
2018-06-02T21:51:23.132Z,21.76
2018-06-02T21:53:50.625Z,21.87
2018-06-02T21:56:18.080Z,21.86
2018-06-02T21:58:45.532Z,21.91
2018-06-02T22:01:13.004Z,21.90
2018-06-02T22:03:40.461Z,21.62
2018-06-02T22:06:07.928Z,21.78
2018-06-02T22:08:35.368Z,22.00
2018-06-02T22:11:02.824Z,21.91
2018-06-02T22:13:30.308Z,21.88
2018-06-02T22:15:57.788Z,21.87
2018-06-02T22:18:25.290Z,21.70
2018-06-02T22:20:52.767Z,21.61
2018-06-02T22:23:20.224Z,21.53
2018-06-02T22:25:47.732Z,21.38
2018-06-02T22:28:15.197Z,21.39
2018-06-02T22:30:42.692Z,21.46
2018-06-02T22:33:10.160Z,21.41
2018-06-02T22:35:37.627Z,21.49
2018-06-02T22:38:05.105Z,21.42
2018-06-02T22:40:32.576Z,21.35
2018-06-02T22:43:00.053Z,21.38
2018-06-02T22:45:27.515Z,21.48
2018-06-02T22:47:54.977Z,21.45
2018-06-02T22:50:22.461Z,21.43
2018-06-02T22:52:49.926Z,21.39
2018-06-02T22:55:17.428Z,21.37
2018-06-02T22:57:44.888Z,21.29
2018-06-02T23:00:20.136Z,21.36
2018-06-02T23:02:47.607Z,21.45
2018-06-02T23:05:15.095Z,21.37
2018-06-02T23:07:42.600Z,21.27
2018-06-02T23:10:10.060Z,21.37
2018-06-02T23:12:37.545Z,21.38
2018-06-02T23:15:05.000Z,21.45
2018-06-02T23:17:32.472Z,21.48
2018-06-02T23:19:59.932Z,21.39
2018-06-02T23:22:39.132Z,21.28
2018-06-02T23:25:06.608Z,21.33
2018-06-02T23:27:34.067Z,21.31
2018-06-02T23:30:01.795Z,21.26
2018-06-02T23:32:29.258Z,21.27
2018-06-02T23:34:56.739Z,21.07
2018-06-02T23:37:24.205Z,21.10
2018-06-02T23:39:51.704Z,21.08
2018-06-02T23:42:19.164Z,21.20
2018-06-02T23:44:46.633Z,21.22
2018-06-02T23:47:14.175Z,21.15
2018-06-02T23:49:41.669Z,20.96
2018-06-02T23:52:09.152Z,20.77
2018-06-02T23:54:36.622Z,20.80
2018-06-02T23:57:04.112Z,20.89
2018-06-02T23:59:31.584Z,20.91
